Tuesday, January 15, 2019, 6:49 PM EST
Back to Local

KDAW, Skyhaven Airport

Location: Rochester, NH, United States Lat: 43.283
Local Time: 6:49 PM EST (23:49 GMT) Lon: -70.917
Time Zone: US/Eastern Elev: 321 ft

Show me the last for .
Show Decoded

2019-01-15 17:51 METAR KDAW 152251Z AUTO 28003KT 10SM CLR M02/M07 A3005 RMK AO2 SLP177 T10171072
                 =
2019-01-15 16:51 METAR KDAW 152151Z AUTO 00000KT 10SM CLR M01/M07 A3003 RMK AO2 SLP172 T10111072
                 =
2019-01-15 15:51 METAR KDAW 152051Z AUTO 00000KT 10SM CLR 00/M07 A3003 RMK AO2 SLP171 T00001072
                 53006 =
2019-01-15 14:51 METAR KDAW 151951Z AUTO 32008KT 10SM FEW037 01/M07 A3002 RMK AO2 SLP169
                 T00061067 =
2019-01-15 13:51 METAR KDAW 151851Z AUTO VRB03KT 10SM SCT044 01/M07 A3001 RMK AO2 SLP164
                 T00111072 =
2019-01-15 12:51 METAR KDAW 151751Z AUTO VRB03KT 10SM CLR 01/M08 A3001 RMK AO2 SLP164 T00061078
                 10011 21111 58020 =
2019-01-15 11:51 METAR KDAW 151651Z AUTO 29005KT 10SM FEW045 M01/M09 A3003 RMK AO2 SLP171
                 T10061094 =
2019-01-15 10:51 METAR KDAW 151551Z AUTO 32006KT 10SM CLR M02/M09 A3006 RMK AO2 SLP182 T10221094
                 =
2019-01-15 09:51 METAR KDAW 151451Z AUTO 32007KT 10SM CLR M03/M10 A3007 RMK AO2 SLP186 T10331100
                 52017 =
2019-01-15 08:51 METAR KDAW 151351Z AUTO 33007KT 10SM CLR M06/M12 A3005 RMK AO2 SLP180 T10561117
                 =
2019-01-15 07:51 METAR KDAW 151251Z AUTO 33003KT 10SM CLR M09/M13 A3004 RMK AO2 SLP174 T10941133
                 =
2019-01-15 06:51 METAR KDAW 151151Z AUTO 33004KT 10SM CLR M11/M14 A3002 RMK AO2 SLP168 T11061139
                 11089 21111 53007 =
2019-01-15 05:51 METAR KDAW 151051Z AUTO 33003KT 10SM CLR M10/M14 A3000 RMK AO2 SLP162 T11001139
                 =
2019-01-15 04:51 METAR KDAW 150951Z AUTO 32006KT 10SM CLR M09/M14 A2999 RMK AO2 SLP159 T10941144
                 =
2019-01-15 03:51 METAR KDAW 150851Z AUTO 32005KT 10SM CLR M11/M13 A3000 RMK AO2 SLP161 T11061133
                 56009 =
2019-01-15 02:51 METAR KDAW 150751Z AUTO 32003KT 10SM CLR M11/M13 A3001 RMK AO2 SLP163 T11061128
                 =
2019-01-15 01:51 METAR KDAW 150651Z AUTO 32005KT 10SM CLR M10/M12 A3001 RMK AO2 SLP166 T11001122
                 =
2019-01-15 00:51 METAR KDAW 150551Z AUTO 32004KT 10SM CLR M09/M12 A3003 RMK AO2 SLP170 T10941117
                 11044 21100 58015 =
2019-01-14 23:51 METAR KDAW 150451Z AUTO 31006KT 10SM CLR M09/M11 A3004 RMK AO2 SLP175 T10891111
                 410111133 =
2019-01-14 22:51 METAR KDAW 150351Z AUTO 32006KT 10SM CLR M09/M11 A3006 RMK AO2 SLP180 T10891111
                 =
2019-01-14 21:51 METAR KDAW 150251Z AUTO 32004KT 10SM CLR M08/M11 A3007 RMK AO2 SLP184 T10781111
                 56008 =
2019-01-14 20:51 METAR KDAW 150151Z AUTO 30004KT 10SM CLR M06/M11 A3007 RMK AO2 SLP185 T10611111
                 =
2019-01-14 19:51 METAR KDAW 150051Z AUTO 32003KT 10SM CLR M06/M11 A3008 RMK AO2 SLP188 T10611111
                 =
2019-01-14 18:51 METAR KDAW 142351Z AUTO 33003KT 10SM CLR M04/M11 A3009 RMK AO2 SLP194 T10441111
                 11011 21050 56009 =

Support USWX by starting your Amazon purchase here.